Time;durP1;ratioP1;P1;durP2;ratioP2;P2;SDS_P1;SDS_P2;PMS_P1;PMS_P2;Temp;Humidity;BMP_temperature;BMP_pressure;BME280_temperature;BME280_humidity;BME280_pressure;Samples;Min_cycle;Max_cycle;Signal;HPM_P1;HPM_P2
2020/12/02 00:00:49;;;;;;;35.73;17.50;;;;;;;1.28;100.00;98655.78;3866985;76;43392;-21
2020/12/02 00:05:57;;;;;;;31.10;16.23;;;;;;;1.27;100.00;98649.64;3866367;77;43470;-21
2020/12/02 00:11:06;;;;;;;34.13;17.63;;;;;;;1.29;100.00;98654.38;3889718;76;44046;-21
2020/12/02 00:16:14;;;;;;;35.87;17.60;;;;;;;1.30;100.00;98655.22;3802675;78;43452;-22
2020/12/02 00:21:21;;;;;;;33.77;18.73;;;;;;;1.28;100.00;98661.09;3827538;75;43476;-21
2020/12/02 00:26:28;;;;;;;36.53;17.93;;;;;;;1.31;100.00;98652.45;3833196;76;43515;-22
2020/12/02 00:31:34;;;;;;;36.80;18.07;;;;;;;1.31;100.00;98655.60;3864375;75;44062;-22
2020/12/02 00:36:41;;;;;;;35.53;18.33;;;;;;;1.29;100.00;98652.19;3810336;77;43734;-22
2020/12/02 00:41:49;;;;;;;35.93;17.90;;;;;;;1.23;100.00;98659.56;3842177;77;43336;-21
2020/12/02 00:46:57;;;;;;;37.93;18.10;;;;;;;1.31;100.00;98663.56;3840136;76;43277;-22
2020/12/02 00:52:03;;;;;;;36.47;18.13;;;;;;;1.28;100.00;98659.77;3817366;76;43690;-22
2020/12/02 00:57:10;;;;;;;33.17;17.10;;;;;;;1.34;100.00;98656.25;3782743;76;44034;-22
2020/12/02 01:02:20;;;;;;;32.20;17.03;;;;;;;1.34;100.00;98656.25;3755690;79;42852;-22
2020/12/02 01:07:28;;;;;;;31.87;16.07;;;;;;;1.29;100.00;98654.38;3827844;76;43810;-23
2020/12/02 01:12:34;;;;;;;37.63;18.80;;;;;;;1.27;100.00;98657.60;3841919;77;44099;-22
2020/12/02 01:17:40;;;;;;;37.23;19.17;;;;;;;1.21;100.00;98660.17;3841990;76;43740;-22
2020/12/02 01:22:47;;;;;;;37.60;18.43;;;;;;;1.18;100.00;98666.11;3784939;77;43331;-22
2020/12/02 01:27:55;;;;;;;36.43;17.83;;;;;;;1.26;100.00;98661.66;3819231;76;43370;-22
2020/12/02 01:33:01;;;;;;;36.57;18.00;;;;;;;1.27;100.00;98662.91;3829044;77;44025;-22
2020/12/02 01:38:08;;;;;;;35.73;17.80;;;;;;;1.35;100.00;98657.95;3819403;76;44066;-22
2020/12/02 01:43:14;;;;;;;37.73;18.70;;;;;;;1.33;100.00;98658.53;3840874;77;43673;-22
2020/12/02 01:48:44;;;;;;;35.23;17.73;;;;;;;1.31;100.00;98649.80;3827131;76;43319;-22
2020/12/02 01:53:54;;;;;;;35.00;18.00;;;;;;;1.26;100.00;98653.23;3856182;77;43368;-21
2020/12/02 01:59:07;;;;;;;37.47;18.73;;;;;;;1.28;100.00;98655.78;3844418;75;44033;-21
2020/12/02 02:04:16;;;;;;;35.60;17.30;;;;;;;1.36;100.00;98644.20;3863005;77;43681;-21
2020/12/02 02:09:22;;;;;;;37.73;18.03;;;;;;;1.38;100.00;98652.92;3895452;76;44279;-21
2020/12/02 02:14:33;;;;;;;39.97;18.40;;;;;;;1.35;100.00;98651.81;3838842;77;43256;-22
2020/12/02 02:19:39;;;;;;;39.43;18.50;;;;;;;1.39;100.00;98646.67;3840918;76;43725;-21
2020/12/02 02:24:48;;;;;;;42.47;20.13;;;;;;;1.42;100.00;98647.81;3779732;78;43718;-21
2020/12/02 02:29:56;;;;;;;40.00;18.87;;;;;;;1.37;100.00;98636.61;3778479;77;44124;-21
2020/12/02 02:35:04;;;;;;;38.47;18.27;;;;;;;1.37;100.00;98639.27;3819893;77;43458;-21
2020/12/02 02:40:12;;;;;;;37.90;17.83;;;;;;;1.38;100.00;98634.34;3803827;77;43721;-21
2020/12/02 02:45:20;;;;;;;34.43;17.20;;;;;;;1.40;100.00;98637.75;3785697;78;43455;-21
2020/12/02 02:50:26;;;;;;;37.57;18.13;;;;;;;1.41;100.00;98630.17;3798071;77;44043;-21
2020/12/02 02:55:32;;;;;;;35.83;17.27;;;;;;;1.46;100.00;98636.51;3762350;78;44093;-22
2020/12/02 03:00:39;;;;;;;37.73;18.07;;;;;;;1.40;100.00;98629.79;3790876;77;42971;-21
2020/12/02 03:05:46;;;;;;;36.60;18.50;;;;;;;1.35;100.00;98628.76;3848002;77;44157;-21
2020/12/02 03:10:55;;;;;;;36.37;17.23;;;;;;;1.37;100.00;98635.28;3731892;78;44043;-22
2020/12/02 03:16:03;;;;;;;34.93;16.87;;;;;;;1.39;100.00;98622.77;3739327;78;43378;-22
2020/12/02 03:21:14;;;;;;;36.37;18.20;;;;;;;1.42;100.00;98631.01;3789968;77;43383;-21
2020/12/02 03:26:22;;;;;;;35.20;16.33;;;;;;;1.39;100.00;98628.08;3769720;78;43401;-21
2020/12/02 03:31:27;;;;;;;38.87;17.70;;;;;;;1.38;100.00;98629.03;3759186;77;43722;-21
2020/12/02 03:36:33;;;;;;;33.53;16.27;;;;;;;1.41;100.00;98624.86;3763418;77;42817;-21
2020/12/02 03:41:40;;;;;;;33.53;17.13;;;;;;;1.36;100.00;98617.19;3836721;76;44010;-21
2020/12/02 03:46:46;;;;;;;36.60;17.30;;;;;;;1.35;100.00;98615.48;3830180;76;43467;-21
2020/12/02 03:51:52;;;;;;;33.40;16.87;;;;;;;1.34;100.00;98620.91;3798056;77;43410;-21
2020/12/02 03:56:58;;;;;;;33.07;16.37;;;;;;;1.28;100.00;98615.97;3685977;79;43726;-21
2020/12/02 04:02:04;;;;;;;34.57;17.33;;;;;;;1.22;100.00;98620.73;3858875;76;43694;-21
2020/12/02 04:07:09;;;;;;;37.00;18.47;;;;;;;1.20;100.00;98614.67;3806710;76;44047;-21
2020/12/02 04:12:15;;;;;;;39.03;18.40;;;;;;;1.18;100.00;98615.69;3849637;76;43334;-21
2020/12/02 04:17:32;;;;;;;35.57;18.20;;;;;;;1.07;100.00;98610.59;3758543;78;44170;-22
2020/12/02 04:22:40;;;;;;;37.40;17.57;;;;;;;1.06;100.00;98606.72;3815945;77;43293;-22
2020/12/02 04:27:46;;;;;;;36.03;17.53;;;;;;;1.03;100.00;98604.25;3825212;76;43685;-22
2020/12/02 04:32:52;;;;;;;35.83;18.47;;;;;;;1.01;100.00;98599.05;3838860;77;43322;-22
2020/12/02 04:37:58;;;;;;;38.57;18.57;;;;;;;0.94;100.00;98594.23;3809845;77;43719;-22
2020/12/02 04:43:06;;;;;;;37.77;18.50;;;;;;;0.94;100.00;98600.40;3757406;78;43378;-22
2020/12/02 04:48:16;;;;;;;35.77;18.40;;;;;;;0.93;100.00;98601.34;3758595;77;43674;-22
2020/12/02 04:53:24;;;;;;;39.90;19.07;;;;;;;0.87;100.00;98593.30;3797299;78;44098;-23
2020/12/02 04:58:32;;;;;;;39.27;18.90;;;;;;;0.86;100.00;98601.33;3797797;77;44077;-23
2020/12/02 05:03:47;;;;;;;36.63;18.43;;;;;;;0.84;100.00;98602.77;3771575;78;43800;-22
2020/12/02 05:08:54;;;;;;;39.13;18.10;;;;;;;0.92;100.00;98607.59;3764787;77;43172;-22
2020/12/02 05:14:03;;;;;;;36.97;18.17;;;;;;;0.94;100.00;98603.05;3643652;80;43685;-22
2020/12/02 05:19:16;;;;;;;44.13;20.97;;;;;;;0.88;100.00;98597.63;3763827;77;43487;-22
2020/12/02 05:24:22;;;;;;;41.10;19.83;;;;;;;0.81;100.00;98607.41;3786011;78;43677;-22
2020/12/02 05:29:39;;;;;;;40.23;19.50;;;;;;;0.74;100.00;98601.63;3798734;77;43391;-22
2020/12/02 05:34:45;;;;;;;37.20;18.80;;;;;;;0.61;100.00;98599.73;3799168;77;43420;-22
2020/12/02 05:39:55;;;;;;;37.77;18.73;;;;;;;0.55;100.00;98596.11;3807657;76;44046;-22
2020/12/02 05:45:09;;;;;;;37.93;18.40;;;;;;;0.47;100.00;98597.06;3807696;77;43441;-22
2020/12/02 05:50:17;;;;;;;36.23;18.03;;;;;;;0.32;100.00;98597.98;3818487;76;44064;-23
2020/12/02 05:55:25;;;;;;;31.73;14.83;;;;;;;0.19;100.00;98605.34;3832532;77;44044;-23
2020/12/02 06:00:33;;;;;;;37.80;18.67;;;;;;;0.19;100.00;98600.52;3847203;76;44045;-22
2020/12/02 06:05:38;;;;;;;31.63;16.90;;;;;;;0.14;100.00;98602.96;3849614;77;43509;-22
2020/12/02 06:11:01;;;;;;;34.93;15.83;;;;;;;0.07;100.00;98598.11;3864768;76;44088;-22
2020/12/02 06:16:09;;;;;;;37.10;19.13;;;;;;;-0.03;100.00;98593.36;3783774;77;44125;-22
2020/12/02 06:21:26;;;;;;;38.80;18.03;;;;;;;-0.10;100.00;98584.54;3814310;76;43100;-22
2020/12/02 06:26:38;;;;;;;39.73;17.77;;;;;;;-0.20;100.00;98588.22;3788155;77;44041;-22
2020/12/02 06:31:46;;;;;;;39.37;18.97;;;;;;;-0.29;100.00;98580.33;3837100;76;43498;-23
2020/12/02 06:37:02;;;;;;;39.57;18.07;;;;;;;-0.40;100.00;98580.94;3784547;77;43506;-23
2020/12/02 06:42:31;;;;;;;39.27;17.83;;;;;;;-0.46;100.00;98578.66;3712856;78;44900;-22
2020/12/02 06:47:38;;;;;;;39.63;18.27;;;;;;;-0.48;100.00;98573.45;3744897;77;44031;-23
2020/12/02 06:52:46;;;;;;;38.20;17.70;;;;;;;-0.59;100.00;98569.70;3783298;77;44065;-20
2020/12/02 06:57:58;;;;;;;37.97;18.33;;;;;;;-0.62;100.00;98565.45;3688920;78;44047;-23
2020/12/02 07:03:05;;;;;;;39.27;18.83;;;;;;;-0.69;100.00;98558.33;3775018;78;43253;-23
2020/12/02 07:08:15;;;;;;;37.70;18.30;;;;;;;-0.80;100.00;98546.17;3801368;77;43717;-20
2020/12/02 07:13:23;;;;;;;44.63;20.40;;;;;;;-0.84;100.00;98540.21;3794924;78;44033;-21
2020/12/02 07:18:31;;;;;;;47.00;19.43;;;;;;;-0.84;100.00;98541.98;3651527;80;43392;-20
2020/12/02 07:23:37;;;;;;;45.50;20.47;;;;;;;-0.88;100.00;98540.47;3727335;77;44054;-23
2020/12/02 07:28:44;;;;;;;46.57;20.10;;;;;;;-0.86;100.00;98541.21;3794865;77;43491;-20
2020/12/02 07:34:01;;;;;;;43.60;18.70;;;;;;;-0.86;100.00;98546.50;3773502;78;44628;-20
2020/12/02 07:39:12;;;;;;;41.07;19.03;;;;;;;-0.89;100.00;98541.41;3802712;76;43875;-20
2020/12/02 07:44:19;;;;;;;44.33;20.50;;;;;;;-0.96;100.00;98548.83;3850569;76;43954;-23
2020/12/02 07:49:27;;;;;;;42.93;19.73;;;;;;;-1.03;100.00;98543.03;3748842;79;43350;-20
2020/12/02 07:54:33;;;;;;;44.27;20.47;;;;;;;-1.19;100.00;98529.80;3789072;76;43350;-20
2020/12/02 07:59:40;;;;;;;49.70;20.27;;;;;;;-1.26;100.00;98537.22;3807661;76;43196;-21
2020/12/02 08:04:58;;;;;;;46.97;21.17;;;;;;;-1.17;100.00;98537.16;3817882;77;43701;-23
2020/12/02 08:10:05;;;;;;;50.13;23.23;;;;;;;-1.10;100.00;98529.74;3824841;76;44030;-20
2020/12/02 08:15:13;;;;;;;49.73;22.03;;;;;;;-1.09;100.00;98527.48;3793211;77;43456;-20
2020/12/02 08:20:31;;;;;;;52.87;21.63;;;;;;;-1.00;100.00;98526.12;3791205;76;44444;-20
2020/12/02 08:25:39;;;;;;;44.63;20.27;;;;;;;-1.03;100.00;98530.26;3804982;76;44015;-20
2020/12/02 08:30:44;;;;;;;45.17;20.60;;;;;;;-1.09;100.00;98534.09;3821033;76;43388;-21
2020/12/02 08:35:52;;;;;;;41.83;19.43;;;;;;;-1.08;100.00;98529.19;3841798;77;44076;-20
2020/12/02 08:40:59;;;;;;;47.17;21.07;;;;;;;-1.06;100.00;98527.80;3859199;76;44055;-21
2020/12/02 08:46:30;;;;;;;35.53;17.37;;;;;;;-1.00;100.00;98525.64;3866668;77;43329;-20
2020/12/02 08:51:36;;;;;;;42.10;19.13;;;;;;;-0.90;100.00;98518.55;3864122;76;43714;-21
2020/12/02 08:56:42;;;;;;;38.77;17.20;;;;;;;-0.76;100.00;98521.23;3846231;75;44367;-21
2020/12/02 09:01:49;;;;;;;33.40;17.07;;;;;;;-0.71;100.00;98511.73;3858296;76;44419;-23
2020/12/02 09:06:55;;;;;;;34.73;17.57;;;;;;;-0.62;100.00;98512.53;3868090;75;43484;-23
2020/12/02 09:12:02;;;;;;;35.90;18.00;;;;;;;-0.53;100.00;98512.47;3866848;76;44073;-23
2020/12/02 09:17:08;;;;;;;29.97;17.13;;;;;;;-0.40;100.00;98504.66;3866523;77;44052;-23
2020/12/02 09:22:14;;;;;;;38.67;18.77;;;;;;;-0.27;100.00;98491.08;3868260;75;43389;-24
2020/12/02 09:27:20;;;;;;;35.57;18.93;;;;;;;-0.27;100.00;98495.50;3855485;77;43931;-21
2020/12/02 09:32:27;;;;;;;37.30;17.77;;;;;;;-0.19;100.00;98490.63;3733727;77;43367;-20
2020/12/02 09:37:34;;;;;;;40.80;20.30;;;;;;;-0.04;100.00;98485.71;3688963;79;44073;-23
2020/12/02 09:43:09;;;;;;;43.27;21.43;;;;;;;0.09;100.00;98484.52;3661385;80;43368;-23
2020/12/02 09:48:19;;;;;;;43.70;20.83;;;;;;;0.04;100.00;98473.82;3837484;76;44036;-23
2020/12/02 09:53:27;;;;;;;44.50;21.13;;;;;;;0.15;100.00;98475.34;3798901;76;44846;-22
2020/12/02 09:58:32;;;;;;;43.07;20.63;;;;;;;0.22;100.00;98470.52;3808555;76;43330;-22
2020/12/02 10:03:49;;;;;;;49.13;22.63;;;;;;;0.34;100.00;98468.89;3737090;77;43427;-22
2020/12/02 10:09:04;;;;;;;44.40;21.63;;;;;;;0.39;100.00;98469.47;3809235;76;43670;-21
2020/12/02 10:14:38;;;;;;;45.60;22.27;;;;;;;0.37;100.00;98454.13;3837790;77;43390;-21
2020/12/02 10:20:13;;;;;;;46.17;21.20;;;;;;;0.41;100.00;98442.40;3736016;78;44183;-21
2020/12/02 10:25:25;;;;;;;41.33;20.57;;;;;;;0.45;100.00;98437.26;3776136;76;44090;-21
2020/12/02 10:30:33;;;;;;;45.77;22.07;;;;;;;0.44;100.00;98434.23;3810927;76;44766;-21
2020/12/02 10:35:42;;;;;;;47.03;21.90;;;;;;;0.53;100.00;98419.55;3795100;76;43349;-21
2020/12/02 10:40:53;;;;;;;53.90;21.77;;;;;;;0.55;100.00;98418.49;3830487;76;44518;-21
2020/12/02 10:46:01;;;;;;;46.30;22.07;;;;;;;0.50;100.00;98407.34;3847897;77;43363;-22
2020/12/02 10:51:10;;;;;;;66.77;22.90;;;;;;;0.37;100.00;98398.48;3848646;76;43671;-21
2020/12/02 10:56:19;;;;;;;47.77;20.57;;;;;;;0.43;100.00;98383.48;3843542;77;43922;-21
2020/12/02 11:01:25;;;;;;;62.83;22.40;;;;;;;0.53;100.00;98375.31;3849062;76;44152;-23
2020/12/02 11:06:38;;;;;;;52.83;21.67;;;;;;;0.64;100.00;98369.83;3792121;77;43986;-23
2020/12/02 11:11:53;;;;;;;51.43;21.77;;;;;;;0.73;100.00;98351.49;3842299;76;43720;-23
2020/12/02 11:17:03;;;;;;;43.63;20.67;;;;;;;0.87;100.00;98350.60;3849325;77;44046;-22
2020/12/02 11:22:18;;;;;;;46.17;22.17;;;;;;;1.01;100.00;98341.71;3841319;76;41979;-22
2020/12/02 11:27:25;;;;;;;41.43;20.73;;;;;;;1.19;100.00;98333.45;3804592;77;42921;-22
2020/12/02 11:33:28;;;;;;;41.83;20.83;;;;;;;1.32;100.00;98319.72;3832241;76;44118;-23
2020/12/02 11:38:37;;;;;;;42.13;20.70;;;;;;;1.37;100.00;98328.69;3761655;76;43389;-22
2020/12/02 11:43:46;;;;;;;45.83;22.37;;;;;;;1.40;100.00;98313.05;3849210;77;43381;-23
2020/12/02 11:48:58;;;;;;;42.37;21.20;;;;;;;1.34;100.00;98305.03;3849529;76;44046;-22
2020/12/02 11:54:07;;;;;;;38.23;21.17;;;;;;;1.45;100.00;98305.14;3814700;77;44072;-23
2020/12/02 11:59:16;;;;;;;43.57;21.33;;;;;;;1.54;100.00;98300.97;3803072;76;44051;-22
2020/12/02 12:04:39;;;;;;;44.17;22.07;;;;;;;1.59;100.00;98303.33;3834873;77;44031;-23
2020/12/02 12:09:49;;;;;;;46.00;21.60;;;;;;;1.71;100.00;98290.98;3820077;76;44045;-23
2020/12/02 12:14:59;;;;;;;44.07;20.73;;;;;;;1.70;100.00;98291.47;3828429;77;43539;-22
2020/12/02 12:20:08;;;;;;;42.87;21.43;;;;;;;1.66;100.00;98286.00;3816886;76;43761;-22
2020/12/02 12:25:18;;;;;;;46.17;21.93;;;;;;;1.47;100.00;98274.00;3848201;77;42820;-23
2020/12/02 12:30:24;;;;;;;36.20;19.47;;;;;;;1.44;100.00;98268.92;3849498;76;43681;-23
2020/12/02 12:35:33;;;;;;;34.73;18.17;;;;;;;1.34;100.00;98259.91;3848826;77;43734;-23
2020/12/02 12:40:42;;;;;;;32.97;17.83;;;;;;;1.38;100.00;98258.72;3846730;76;43685;-23
2020/12/02 12:45:51;;;;;;;33.57;17.67;;;;;;;1.22;100.00;98253.17;3764251;78;43433;-23
2020/12/02 12:50:57;;;;;;;35.07;19.53;;;;;;;1.25;100.00;98245.93;3835301;77;44101;-23
2020/12/02 12:56:05;;;;;;;39.00;19.27;;;;;;;1.32;100.00;98241.91;3780927;77;43238;-22
2020/12/02 13:01:12;;;;;;;35.40;18.70;;;;;;;1.03;100.00;98232.37;3656382;79;43712;-21
2020/12/02 13:06:30;;;;;;;36.50;18.30;;;;;;;0.86;100.00;98231.33;3834739;77;43385;-21
2020/12/02 13:11:47;;;;;;;34.53;18.57;;;;;;;0.63;100.00;98224.47;3707454;78;42550;-23
2020/12/02 13:16:59;;;;;;;36.50;18.53;;;;;;;0.63;100.00;98218.33;3785376;77;44073;-23
2020/12/02 13:22:11;;;;;;;34.17;18.73;;;;;;;0.68;100.00;98213.55;3818060;77;44028;-22
2020/12/02 13:27:23;;;;;;;36.03;19.33;;;;;;;0.69;100.00;98209.48;3773283;78;43592;-21
2020/12/02 13:32:32;;;;;;;38.30;19.93;;;;;;;0.77;100.00;98214.23;3764900;78;44113;-21
2020/12/02 13:37:39;;;;;;;42.73;21.43;;;;;;;0.81;100.00;98218.39;3767675;77;44063;-20
2020/12/02 13:42:44;;;;;;;39.30;20.13;;;;;;;0.78;100.00;98221.24;3745751;78;43097;-23
2020/12/02 13:47:53;;;;;;;38.17;20.00;;;;;;;0.82;100.00;98220.59;3733234;77;43385;-23
2020/12/02 13:53:02;;;;;;;37.43;19.27;;;;;;;0.79;100.00;98209.69;3775670;77;43353;-23
2020/12/02 13:58:14;;;;;;;39.73;20.63;;;;;;;0.76;100.00;98212.57;3799073;78;44012;-22
2020/12/02 14:03:40;;;;;;;41.30;20.20;;;;;;;0.61;100.00;98213.11;3807150;77;44054;-22
2020/12/02 14:08:46;;;;;;;40.93;20.03;;;;;;;0.55;100.00;98221.00;3796769;77;44749;-22
2020/12/02 14:13:52;;;;;;;44.20;20.33;;;;;;;0.60;100.00;98215.38;3798723;78;43380;-23
2020/12/02 14:18:58;;;;;;;42.40;20.43;;;;;;;0.42;100.00;98202.43;3787479;77;43231;-23
2020/12/02 14:24:04;;;;;;;42.73;20.70;;;;;;;0.39;100.00;98196.49;3824967;77;43463;-23
2020/12/02 14:29:10;;;;;;;45.97;21.83;;;;;;;0.27;100.00;98189.73;3765214;78;43375;-20
2020/12/02 14:34:16;;;;;;;45.67;21.90;;;;;;;0.30;100.00;98188.67;3777160;77;43677;-23
2020/12/02 14:39:21;;;;;;;45.40;21.80;;;;;;;0.23;100.00;98184.26;3679428;80;43725;-23
2020/12/02 14:44:28;;;;;;;43.70;21.57;;;;;;;0.25;100.00;98185.47;3798397;77;43383;-23
2020/12/02 14:49:35;;;;;;;47.10;21.87;;;;;;;0.27;100.00;98189.73;3753235;77;43682;-23
2020/12/02 14:54:41;;;;;;;45.33;22.50;;;;;;;0.23;100.00;98184.26;3775639;77;43694;-23
2020/12/02 14:59:58;;;;;;;44.93;22.00;;;;;;;0.27;100.00;98173.84;3798815;77;44124;-23
2020/12/02 15:05:07;;;;;;;43.27;21.23;;;;;;;0.23;100.00;98177.63;3770734;78;43725;-23
2020/12/02 15:10:17;;;;;;;43.40;22.23;;;;;;;0.29;100.00;98160.47;3764029;77;44078;-23
2020/12/02 15:15:26;;;;;;;41.63;19.83;;;;;;;0.32;100.00;98163.39;3791216;77;43973;-22
2020/12/02 15:20:36;;;;;;;40.40;19.70;;;;;;;0.27;100.00;98152.64;3748212;77;43476;-23
2020/12/02 15:25:42;;;;;;;41.00;20.17;;;;;;;0.26;100.00;98148.75;3736993;77;44037;-22
2020/12/02 15:30:49;;;;;;;38.40;19.10;;;;;;;0.32;100.00;98148.81;3767087;77;44718;-21
2020/12/02 15:36:02;;;;;;;38.33;18.20;;;;;;;0.32;100.00;98140.86;3746995;78;43740;-21
2020/12/02 15:41:12;;;;;;;38.73;17.97;;;;;;;0.32;100.00;98144.38;3771286;77;44098;-21
2020/12/02 15:46:27;;;;;;;33.77;17.00;;;;;;;0.35;100.00;98136.23;3822223;77;43436;-23
2020/12/02 15:51:38;;;;;;;33.40;16.47;;;;;;;0.33;100.00;98129.31;3817970;76;44612;-21
2020/12/02 15:56:54;;;;;;;33.13;16.13;;;;;;;0.26;100.00;98141.67;3784992;77;43116;-21
2020/12/02 16:02:02;;;;;;;31.43;15.73;;;;;;;0.18;100.00;98133.36;3818019;76;43685;-21
2020/12/02 16:07:13;;;;;;;31.10;15.83;;;;;;;0.12;100.00;98141.73;3811476;77;44053;-21
2020/12/02 16:12:19;;;;;;;28.77;15.57;;;;;;;0.11;100.00;98140.03;3821761;76;44038;-23
2020/12/02 16:17:25;;;;;;;32.00;16.40;;;;;;;0.02;100.00;98133.55;3818185;77;44028;-21
2020/12/02 16:22:42;;;;;;;27.40;14.20;;;;;;;-0.02;100.00;98130.25;3816697;76;44042;-23
2020/12/02 16:27:49;;;;;;;32.30;15.83;;;;;;;-0.07;100.00;98119.14;3809012;77;44094;-20
2020/12/02 16:32:58;;;;;;;27.93;14.20;;;;;;;-0.16;100.00;98115.75;3816308;76;43460;-21
2020/12/02 16:38:06;;;;;;;30.03;14.70;;;;;;;-0.24;100.00;98111.44;3811484;77;43333;-21
2020/12/02 16:43:50;;;;;;;31.00;16.57;;;;;;;-0.35;100.00;98106.84;3837581;76;43685;-21
2020/12/02 16:49:28;;;;;;;30.23;15.30;;;;;;;-0.49;100.00;98099.35;3739487;77;44004;-23
2020/12/02 16:55:17;;;;;;;28.20;14.87;;;;;;;-0.59;100.00;98106.64;3814051;77;44059;-23
2020/12/02 17:00:30;;;;;;;25.53;13.73;;;;;;;-0.73;100.00;98105.73;3714068;78;44041;-23
2020/12/02 17:05:33;;;;;;;26.57;14.07;;;;;;;-0.94;100.00;98099.55;3731541;78;44376;-23
2020/12/02 17:10:39;;;;;;;27.27;13.83;;;;;;;-1.01;100.00;98094.28;3807157;77;44096;-23
2020/12/02 17:16:00;;;;;;;27.57;14.80;;;;;;;-1.08;100.00;98094.27;3766345;77;44053;-22
2020/12/02 17:21:19;;;;;;;29.27;14.73;;;;;;;-1.05;100.00;98103.34;3766134;77;43724;-23
2020/12/02 17:26:30;;;;;;;29.07;15.50;;;;;;;-1.13;100.00;98103.81;3741411;78;44039;-23
2020/12/02 17:32:05;;;;;;;28.23;14.57;;;;;;;-1.26;100.00;98111.66;3767407;77;44074;-23
2020/12/02 17:37:16;;;;;;;27.43;14.03;;;;;;;-1.25;100.00;98112.05;3745165;78;42868;-22
2020/12/02 17:42:29;;;;;;;28.87;14.50;;;;;;;-1.25;100.00;98109.86;3794599;77;43725;-22
2020/12/02 17:47:38;;;;;;;26.23;13.70;;;;;;;-1.21;100.00;98098.16;3778848;77;44103;-23
2020/12/02 17:52:57;;;;;;;26.37;14.27;;;;;;;-1.28;100.00;98098.14;3766694;77;44419;-22
2020/12/02 17:58:25;;;;;;;27.17;14.03;;;;;;;-1.22;100.00;98092.95;3769086;78;44089;-23
2020/12/02 18:03:36;;;;;;;32.90;15.50;;;;;;;-1.34;100.00;98082.20;3769116;77;43445;-23
2020/12/02 18:08:57;;;;;;;28.43;14.60;;;;;;;-1.41;100.00;98071.16;3805286;76;43713;-22
2020/12/02 18:14:20;;;;;;;31.67;14.87;;;;;;;-1.46;100.00;98061.36;3752189;78;390035;-23
2020/12/02 18:19:29;;;;;;;26.20;14.17;;;;;;;-1.46;100.00;98061.36;3773273;77;44418;-22
2020/12/02 18:24:43;;;;;;;28.77;15.07;;;;;;;-1.46;100.00;98064.45;3830733;76;44051;-23
2020/12/02 18:29:55;;;;;;;30.93;14.97;;;;;;;-1.48;100.00;98060.59;3777685;77;44436;-22
2020/12/02 18:35:20;;;;;;;31.13;15.03;;;;;;;-1.47;100.00;98061.46;3808472;77;43665;-23
2020/12/02 18:40:35;;;;;;;29.87;15.80;;;;;;;-1.49;100.00;98052.78;3798835;76;44008;-22
2020/12/02 18:45:42;;;;;;;30.10;15.43;;;;;;;-1.54;100.00;98050.42;3792062;77;44077;-23
2020/12/02 18:50:48;;;;;;;36.00;18.17;;;;;;;-1.58;100.00;98044.45;3784105;78;44013;-22
2020/12/02 18:55:57;;;;;;;40.13;18.70;;;;;;;-1.51;100.00;98036.16;3748053;78;44433;-23
2020/12/02 19:01:04;;;;;;;34.10;15.77;;;;;;;-1.51;100.00;98032.20;3745179;78;43457;-23
2020/12/02 19:06:13;;;;;;;28.77;14.60;;;;;;;-1.53;100.00;98036.72;3746161;78;43552;-23
2020/12/02 19:11:39;;;;;;;28.87;14.30;;;;;;;-1.51;100.00;98028.23;3742100;78;43382;-22
2020/12/02 19:16:56;;;;;;;28.33;14.57;;;;;;;-1.52;100.00;98037.11;3755699;78;44144;-22
2020/12/02 19:22:19;;;;;;;31.57;15.00;;;;;;;-1.49;100.00;98023.72;3762251;78;43973;-22
2020/12/02 19:27:31;;;;;;;31.20;14.63;;;;;;;-1.55;100.00;98016.53;3750205;78;43336;-22
2020/12/02 19:32:44;;;;;;;29.70;15.70;;;;;;;-1.50;100.00;98024.17;3644368;79;43283;-23
2020/12/02 19:37:55;;;;;;;28.03;13.93;;;;;;;-1.58;100.00;98024.64;3765263;78;43454;-21
2020/12/02 19:43:24;;;;;;;26.00;14.10;;;;;;;-1.57;100.00;98025.50;3747777;78;43505;-21
2020/12/02 19:48:34;;;;;;;27.93;14.83;;;;;;;-1.65;100.00;98023.33;3818486;76;44067;-20
2020/12/02 19:53:44;;;;;;;30.90;14.47;;;;;;;-1.67;100.00;98025.21;3825015;76;43367;-21
2020/12/02 19:59:17;;;;;;;30.30;15.20;;;;;;;-1.74;100.00;98018.63;3854731;76;44065;-23
2020/12/02 20:04:25;;;;;;;30.80;15.13;;;;;;;-1.63;100.00;98025.41;3823574;76;44248;-21
2020/12/02 20:09:39;;;;;;;27.13;14.23;;;;;;;-1.66;100.00;98013.70;3836456;76;43341;-21
2020/12/02 20:14:52;;;;;;;32.90;15.30;;;;;;;-1.65;100.00;98014.09;3808171;76;43323;-21
2020/12/02 20:20:09;;;;;;;31.23;14.73;;;;;;;-1.63;100.00;98016.16;3817437;75;44126;-21
2020/12/02 20:25:21;;;;;;;31.83;15.20;;;;;;;-1.55;100.00;98005.97;3807095;76;44038;-20
2020/12/02 20:30:30;;;;;;;31.20;14.77;;;;;;;-1.58;100.00;98000.86;3810244;76;44177;-20
2020/12/02 20:35:39;;;;;;;31.67;15.37;;;;;;;-1.55;100.00;98002.48;3809559;76;43829;-23
2020/12/02 20:40:48;;;;;;;30.47;14.77;;;;;;;-1.55;100.00;97997.20;3857519;76;44153;-22
2020/12/02 20:45:55;;;;;;;30.50;14.87;;;;;;;-1.58;100.00;97988.98;3819538;76;43170;-22
2020/12/02 20:51:09;;;;;;;31.70;14.83;;;;;;;-1.57;100.00;97989.36;3847946;77;43398;-22
2020/12/02 20:56:19;;;;;;;28.37;14.07;;;;;;;-1.51;100.00;97984.65;3837306;76;44061;-22
2020/12/02 21:01:27;;;;;;;29.43;14.20;;;;;;;-1.55;100.00;97982.19;3800480;77;43288;-22
2020/12/02 21:06:33;;;;;;;28.53;14.93;;;;;;;-1.55;100.00;97983.52;3774180;77;43729;-22
2020/12/02 21:11:39;;;;;;;29.10;13.73;;;;;;;-1.52;100.00;97978.98;3865528;76;44018;-22
2020/12/02 21:16:56;;;;;;;31.47;14.87;;;;;;;-1.56;100.00;97975.20;3835205;76;44082;-22
2020/12/02 21:22:23;;;;;;;31.37;14.53;;;;;;;-1.54;100.00;97963.24;3835236;77;44081;-22
2020/12/02 21:27:33;;;;;;;31.47;14.60;;;;;;;-1.50;100.00;97959.93;3834928;77;44765;-22
2020/12/02 21:32:43;;;;;;;31.33;14.20;;;;;;;-1.52;100.00;97936.72;3834486;77;44970;-22
2020/12/02 21:37:50;;;;;;;27.80;14.33;;;;;;;-1.52;100.00;97922.19;3832640;77;44645;-22
2020/12/02 21:43:26;;;;;;;30.50;14.70;;;;;;;-1.60;100.00;97919.57;3835089;77;43741;-22
2020/12/02 21:48:41;;;;;;;29.80;14.27;;;;;;;-1.63;100.00;97910.97;3833760;76;44483;-22
2020/12/02 21:54:05;;;;;;;31.20;15.07;;;;;;;-1.64;100.00;97903.53;3815632;77;44069;-22
2020/12/02 21:59:14;;;;;;;27.83;14.53;;;;;;;-1.60;100.00;97892.30;3865686;76;43498;-22
2020/12/02 22:04:52;;;;;;;26.57;13.67;;;;;;;-1.70;100.00;97881.45;3757469;78;43364;-22
2020/12/02 22:10:06;;;;;;;30.00;13.73;;;;;;;-1.64;100.00;97874.48;3827798;76;44056;-22
2020/12/02 22:15:15;;;;;;;31.30;14.73;;;;;;;-1.61;100.00;97861.54;3887185;76;43666;-22
2020/12/02 22:20:24;;;;;;;27.00;13.57;;;;;;;-1.56;100.00;97856.33;3832557;76;44212;-22
2020/12/02 22:25:32;;;;;;;26.20;13.57;;;;;;;-1.59;100.00;97864.45;3821788;76;43717;-22
2020/12/02 22:30:40;;;;;;;27.60;14.30;;;;;;;-1.61;100.00;97869.01;3836590;76;43949;-22
2020/12/02 22:35:57;;;;;;;28.03;14.13;;;;;;;-1.55;100.00;97875.69;3822152;77;43409;-22
2020/12/02 22:41:13;;;;;;;27.40;13.60;;;;;;;-1.59;100.00;97880.30;3865978;76;44232;-22
2020/12/02 22:46:23;;;;;;;27.37;14.07;;;;;;;-1.44;100.00;97871.88;3814794;76;44018;-22
2020/12/02 22:51:28;;;;;;;25.57;13.17;;;;;;;-1.42;100.00;97877.05;3764684;78;44054;-22
2020/12/02 22:56:36;;;;;;;26.83;13.27;;;;;;;-1.38;100.00;97879.02;3784336;78;44042;-22
2020/12/02 23:01:44;;;;;;;29.53;13.43;;;;;;;-1.42;100.00;97884.52;3783274;78;44086;-22
2020/12/02 23:06:55;;;;;;;26.67;13.50;;;;;;;-1.43;100.00;97874.03;3774423;78;44040;-22
2020/12/02 23:12:04;;;;;;;28.63;13.83;;;;;;;-1.53;100.00;97874.27;3758829;78;43706;-22
2020/12/02 23:17:14;;;;;;;25.10;12.50;;;;;;;-1.51;100.00;97861.31;3761844;78;44050;-22
2020/12/02 23:22:20;;;;;;;28.47;13.50;;;;;;;-1.49;100.00;97855.95;3780859;77;44115;-22
2020/12/02 23:27:29;;;;;;;27.40;12.70;;;;;;;-1.44;100.00;97854.70;3753938;78;43760;-22
2020/12/02 23:33:08;;;;;;;25.50;13.33;;;;;;;-1.47;100.00;97856.70;3763385;78;43096;-22
2020/12/02 23:38:12;;;;;;;28.87;13.60;;;;;;;-1.47;100.00;97843.50;3776847;78;44078;-22
2020/12/02 23:43:21;;;;;;;27.20;13.00;;;;;;;-1.46;100.00;97842.06;3769382;78;43719;-22